createdAt,value
2022-09-23T00:01:08.993Z,10.85
2022-09-23T00:03:37.360Z,12.88
2022-09-23T00:06:10.741Z,10.82
2022-09-23T00:08:38.622Z,10.98
2022-09-23T00:11:11.240Z,13.20
2022-09-23T00:13:42.953Z,10.40
2022-09-23T00:16:13.397Z,14.95
2022-09-23T00:18:41.752Z,11.45
2022-09-23T00:21:11.163Z,14.70
2022-09-23T00:23:40.542Z,10.75
2022-09-23T00:26:09.486Z,11.15
2022-09-23T00:28:36.874Z,13.02
2022-09-23T00:31:09.385Z,12.30
2022-09-23T00:33:36.185Z,13.27
2022-09-23T00:36:05.686Z,11.38
2022-09-23T00:38:32.265Z,11.75
2022-09-23T00:40:58.804Z,14.38
2022-09-23T00:43:41.105Z,11.15
2022-09-23T00:46:16.710Z,12.90
2022-09-23T00:48:44.678Z,13.02
2022-09-23T00:51:17.921Z,14.32
2022-09-23T00:53:47.249Z,12.15
2022-09-23T00:56:18.014Z,13.15
2022-09-23T00:58:46.790Z,12.75
2022-09-23T01:01:14.478Z,13.05
2022-09-23T01:03:46.858Z,13.32
2022-09-23T01:06:14.433Z,11.98
2022-09-23T01:08:44.380Z,11.43
2022-09-23T01:11:35.300Z,9.73
2022-09-23T01:14:13.520Z,8.98
2022-09-23T01:16:53.598Z,11.98
2022-09-23T01:19:38.233Z,10.77
2022-09-23T01:22:42.493Z,10.23
2022-09-23T01:25:28.655Z,10.88
2022-09-23T01:28:16.497Z,15.23
2022-09-23T01:30:55.056Z,11.23
2022-09-23T01:33:45.465Z,13.90
2022-09-23T01:36:27.142Z,15.65
2022-09-23T01:39:22.035Z,11.38
2022-09-23T01:42:26.002Z,11.18
2022-09-23T01:44:57.138Z,14.15
2022-09-23T01:47:33.352Z,14.57
2022-09-23T01:50:38.737Z,11.95
2022-09-23T01:53:12.275Z,10.80
2022-09-23T01:55:47.479Z,12.55
2022-09-23T01:58:27.070Z,10.82
2022-09-23T02:01:01.707Z,10.85
2022-09-23T02:03:37.497Z,10.65
2022-09-23T02:06:14.362Z,10.90
2022-09-23T02:09:03.559Z,11.05
2022-09-23T02:11:36.723Z,12.55
2022-09-23T02:14:15.478Z,10.15
2022-09-23T02:16:52.030Z,13.73
2022-09-23T02:19:27.792Z,11.45
2022-09-23T02:22:05.149Z,13.82
2022-09-23T02:24:34.696Z,14.68
2022-09-23T02:27:18.664Z,12.13
2022-09-23T02:29:59.373Z,12.40
2022-09-23T02:32:39.621Z,15.45
2022-09-23T02:35:19.582Z,13.07
2022-09-23T02:37:54.257Z,14.27
2022-09-23T02:40:33.154Z,13.52
2022-09-23T02:43:35.451Z,11.23
2022-09-23T02:46:07.293Z,11.30
2022-09-23T02:48:56.897Z,11.18
2022-09-23T02:51:27.938Z,13.10
2022-09-23T02:53:57.142Z,14.13
2022-09-23T02:56:24.672Z,12.20
2022-09-23T02:58:55.434Z,15.35
2022-09-23T03:01:33.398Z,12.63
2022-09-23T03:04:25.838Z,11.30
2022-09-23T03:07:10.759Z,10.65
2022-09-23T03:10:04.509Z,12.85
2022-09-23T03:12:52.816Z,19.33
2022-09-23T03:15:46.801Z,16.50
2022-09-23T03:18:20.844Z,11.45
2022-09-23T03:20:57.876Z,15.20
2022-09-23T03:23:31.481Z,10.32
2022-09-23T03:26:01.350Z,14.55
2022-09-23T03:28:29.119Z,16.20
2022-09-23T03:30:59.869Z,12.85
2022-09-23T03:33:28.769Z,15.43
2022-09-23T03:36:24.085Z,15.43
2022-09-23T03:38:54.677Z,12.95
2022-09-23T03:41:32.672Z,11.35
2022-09-23T03:44:00.033Z,10.23
2022-09-23T03:46:28.592Z,15.02
2022-09-23T03:49:07.557Z,12.13
2022-09-23T03:51:34.079Z,17.88
2022-09-23T03:54:00.841Z,16.05
2022-09-23T03:56:27.979Z,11.65
2022-09-23T03:58:54.469Z,14.02
2022-09-23T04:01:21.178Z,18.08
2022-09-23T04:03:49.142Z,11.45
2022-09-23T04:06:15.640Z,15.27
2022-09-23T04:08:42.154Z,12.15
2022-09-23T04:11:08.687Z,12.40
2022-09-23T04:13:37.348Z,21.90
2022-09-23T04:16:04.095Z,16.73
2022-09-23T04:18:31.342Z,16.15
2022-09-23T04:21:01.312Z,12.90
2022-09-23T04:23:28.266Z,16.35
2022-09-23T04:25:57.472Z,14.48
2022-09-23T04:28:24.124Z,14.38
2022-09-23T04:30:51.586Z,15.57
2022-09-23T04:33:18.178Z,13.23
2022-09-23T04:35:44.733Z,14.05
2022-09-23T04:38:12.833Z,13.45
2022-09-23T04:40:44.230Z,13.95
2022-09-23T04:43:13.583Z,16.05
2022-09-23T04:45:40.211Z,15.73
2022-09-23T04:48:07.311Z,15.18
2022-09-23T04:50:34.024Z,13.65
2022-09-23T04:53:01.846Z,17.00
2022-09-23T04:55:29.055Z,14.73
2022-09-23T04:57:55.968Z,15.07
2022-09-23T05:00:23.306Z,14.15
2022-09-23T05:02:50.590Z,12.00
2022-09-23T05:05:21.062Z,12.60
2022-09-23T05:07:50.974Z,13.13
2022-09-23T05:10:18.281Z,16.10
2022-09-23T05:12:44.849Z,18.20
2022-09-23T05:15:14.852Z,13.95
2022-09-23T05:17:42.889Z,13.50
2022-09-23T05:20:10.892Z,17.58
2022-09-23T05:22:37.436Z,13.98
2022-09-23T05:25:04.246Z,11.70
2022-09-23T05:27:31.322Z,14.40
2022-09-23T05:29:57.842Z,15.75
2022-09-23T05:32:26.839Z,14.35
2022-09-23T05:34:55.826Z,14.85
2022-09-23T05:37:23.046Z,14.10
2022-09-23T05:39:54.490Z,13.05
2022-09-23T05:42:25.757Z,14.65
2022-09-23T05:44:52.322Z,13.98
2022-09-23T05:47:18.800Z,15.98
2022-09-23T05:49:59.029Z,13.32
2022-09-23T05:52:26.038Z,12.48
2022-09-23T05:54:52.679Z,16.00
2022-09-23T05:57:24.497Z,14.77
2022-09-23T05:59:51.066Z,15.25
2022-09-23T06:02:19.824Z,13.20
2022-09-23T06:04:46.397Z,11.93
2022-09-23T06:07:12.967Z,13.68
2022-09-23T06:09:39.597Z,13.40
2022-09-23T06:12:06.504Z,15.90
2022-09-23T06:14:33.259Z,13.95
2022-09-23T06:16:59.755Z,13.38
2022-09-23T06:19:26.294Z,19.15
2022-09-23T06:21:52.966Z,15.15
2022-09-23T06:24:24.924Z,14.02
2022-09-23T06:26:55.787Z,13.60
2022-09-23T06:29:24.536Z,15.68
2022-09-23T06:31:53.569Z,21.20
2022-09-23T06:34:20.670Z,13.00
2022-09-23T06:36:47.637Z,15.63
2022-09-23T06:39:16.872Z,13.07
2022-09-23T06:41:44.710Z,17.00
2022-09-23T06:44:11.287Z,14.60
2022-09-23T06:46:40.188Z,16.58
2022-09-23T06:49:07.098Z,13.25
2022-09-23T06:51:35.904Z,11.63
2022-09-23T06:54:02.645Z,15.27
2022-09-23T06:56:31.564Z,14.45
2022-09-23T06:59:01.351Z,12.93
2022-09-23T07:01:27.928Z,16.85
2022-09-23T07:03:54.607Z,16.63
2022-09-23T07:06:23.397Z,11.68
2022-09-23T07:08:51.283Z,13.48
2022-09-23T07:11:22.401Z,20.55
2022-09-23T07:13:48.915Z,13.93
2022-09-23T07:16:17.867Z,14.85
2022-09-23T07:18:45.094Z,14.05
2022-09-23T07:21:16.198Z,14.25
2022-09-23T07:23:48.141Z,18.95
2022-09-23T07:26:15.974Z,13.55
2022-09-23T07:28:45.536Z,12.05
2022-09-23T07:31:28.049Z,15.27
2022-09-23T07:34:01.004Z,14.90
2022-09-23T07:36:28.922Z,12.50
2022-09-23T07:39:02.909Z,13.90
2022-09-23T07:41:32.278Z,21.25
2022-09-23T07:44:00.442Z,11.93
2022-09-23T07:46:29.993Z,15.95
2022-09-23T07:48:56.638Z,16.58
2022-09-23T07:51:36.281Z,18.65
2022-09-23T07:54:08.442Z,13.25
2022-09-23T07:56:36.238Z,13.68
2022-09-23T07:59:04.099Z,11.13
2022-09-23T08:01:39.213Z,11.98
2022-09-23T08:04:14.690Z,10.75
2022-09-23T08:06:47.494Z,14.80
2022-09-23T08:09:18.177Z,14.57
2022-09-23T08:11:44.835Z,11.27
2022-09-23T08:14:17.911Z,15.15
2022-09-23T08:16:48.007Z,13.18
2022-09-23T08:19:17.617Z,11.10
2022-09-23T08:21:47.518Z,13.20
2022-09-23T08:24:17.379Z,12.55
2022-09-23T08:26:53.224Z,11.20
2022-09-23T08:29:24.921Z,16.15
2022-09-23T08:31:52.211Z,15.35
2022-09-23T08:34:20.417Z,12.27
2022-09-23T08:36:52.435Z,13.55
2022-09-23T08:39:20.322Z,11.30
2022-09-23T08:42:07.126Z,10.73
2022-09-23T08:44:50.710Z,13.13
2022-09-23T08:47:32.288Z,11.93
2022-09-23T08:50:08.115Z,12.60
2022-09-23T08:52:43.002Z,16.83
2022-09-23T08:55:13.771Z,13.05
2022-09-23T08:58:24.495Z,13.90
2022-09-23T09:01:29.631Z,11.93
2022-09-23T09:04:14.513Z,11.68
2022-09-23T09:06:52.945Z,15.48
2022-09-23T09:09:26.484Z,12.82
2022-09-23T09:12:00.991Z,15.30
2022-09-23T09:14:50.110Z,13.13
2022-09-23T09:17:34.312Z,11.75
2022-09-23T09:20:19.290Z,11.60
2022-09-23T09:22:52.586Z,11.73
2022-09-23T09:25:25.358Z,14.05
2022-09-23T09:27:54.580Z,10.85
2022-09-23T09:30:22.103Z,12.82
2022-09-23T09:32:57.819Z,15.75
2022-09-23T09:35:35.147Z,15.63
2022-09-23T09:38:01.914Z,10.95
2022-09-23T09:40:31.186Z,15.48
2022-09-23T09:43:00.950Z,17.40
2022-09-23T09:46:06.043Z,10.93
2022-09-23T09:48:53.645Z,14.80
2022-09-23T09:51:25.536Z,11.13
2022-09-23T09:53:52.606Z,11.77
2022-09-23T09:56:32.294Z,13.00
2022-09-23T09:59:02.045Z,18.27
2022-09-23T10:01:33.782Z,13.90
2022-09-23T10:04:21.063Z,15.75
2022-09-23T10:07:15.597Z,12.05
2022-09-23T10:09:50.466Z,12.32
2022-09-23T10:12:21.374Z,14.40
2022-09-23T10:14:51.919Z,12.50
2022-09-23T10:17:28.511Z,14.20
2022-09-23T10:20:02.866Z,16.10
2022-09-23T10:22:33.944Z,13.57
2022-09-23T10:25:07.440Z,18.55
2022-09-23T10:27:38.790Z,13.98
2022-09-23T10:30:21.705Z,12.40
2022-09-23T10:32:49.396Z,11.25
2022-09-23T10:35:22.591Z,13.98
2022-09-23T10:37:56.214Z,12.63
2022-09-23T10:40:48.217Z,13.13
2022-09-23T10:43:50.614Z,9.30
2022-09-23T10:46:39.126Z,11.88
2022-09-23T10:49:43.799Z,8.93
2022-09-23T10:52:25.496Z,11.07
2022-09-23T10:55:01.125Z,8.13
2022-09-23T10:57:42.846Z,8.50
2022-09-23T11:00:36.930Z,9.48
2022-09-23T11:03:09.468Z,9.15
2022-09-23T11:06:00.803Z,9.52
2022-09-23T11:08:42.788Z,7.82
2022-09-23T11:11:19.617Z,10.23
2022-09-23T11:14:17.040Z,8.73
2022-09-23T11:17:16.570Z,9.65
2022-09-23T11:20:09.549Z,10.30
2022-09-23T11:22:47.616Z,9.45
2022-09-23T11:25:17.049Z,10.93
2022-09-23T11:28:08.399Z,10.07
2022-09-23T11:31:00.720Z,7.07
2022-09-23T11:33:45.022Z,7.82
2022-09-23T11:36:24.237Z,7.13
2022-09-23T11:38:54.722Z,9.48
2022-09-23T11:41:30.004Z,8.07
2022-09-23T11:44:07.446Z,8.82
2022-09-23T11:47:09.548Z,8.35
2022-09-23T11:49:41.483Z,9.55
2022-09-23T11:52:25.604Z,10.70
2022-09-23T11:55:00.628Z,8.95
2022-09-23T11:57:47.474Z,13.50
2022-09-23T12:00:19.613Z,6.25
2022-09-23T12:03:11.863Z,10.80
2022-09-23T12:05:44.788Z,5.63
2022-09-23T12:08:33.865Z,9.23
2022-09-23T12:11:03.421Z,12.95
2022-09-23T12:13:35.793Z,8.88
2022-09-23T12:16:06.025Z,10.13
2022-09-23T12:18:47.758Z,10.38
2022-09-23T12:21:50.161Z,8.23
2022-09-23T12:24:44.601Z,8.20
2022-09-23T12:27:24.216Z,11.98
2022-09-23T12:30:02.752Z,11.30
2022-09-23T12:32:33.226Z,8.10
2022-09-23T12:35:03.317Z,8.05
2022-09-23T12:37:41.035Z,7.75
2022-09-23T12:40:19.111Z,7.82
2022-09-23T12:42:47.159Z,7.25
2022-09-23T12:45:35.201Z,7.00
2022-09-23T12:48:04.472Z,8.68
2022-09-23T12:50:48.881Z,9.23
2022-09-23T12:53:33.815Z,4.80
2022-09-23T12:56:02.633Z,5.80
2022-09-23T12:58:41.798Z,5.57
2022-09-23T13:01:14.403Z,11.15
2022-09-23T13:04:11.405Z,7.53
2022-09-23T13:06:41.933Z,6.07
2022-09-23T13:09:21.360Z,7.75
2022-09-23T13:11:48.802Z,8.80
2022-09-23T13:14:25.261Z,6.68
2022-09-23T13:16:57.330Z,8.43
2022-09-23T13:19:26.582Z,7.93
2022-09-23T13:22:09.432Z,7.85
2022-09-23T13:24:47.017Z,10.95
2022-09-23T13:27:28.228Z,7.78
2022-09-23T13:30:06.264Z,6.72
2022-09-23T13:32:37.550Z,9.07
2022-09-23T13:35:26.532Z,12.52
2022-09-23T13:37:53.719Z,6.93
2022-09-23T13:40:31.115Z,14.13
2022-09-23T13:43:04.825Z,10.65
2022-09-23T13:45:36.250Z,8.48
2022-09-23T13:48:10.962Z,16.02
2022-09-23T13:50:49.037Z,12.00
2022-09-23T13:53:25.392Z,9.10
2022-09-23T13:56:11.476Z,6.53
2022-09-23T13:58:38.380Z,6.15
2022-09-23T14:01:10.285Z,13.00
2022-09-23T14:03:39.155Z,8.35
2022-09-23T14:06:14.598Z,8.48
2022-09-23T14:08:48.030Z,7.80
2022-09-23T14:11:20.553Z,9.60
2022-09-23T14:13:57.428Z,13.13
2022-09-23T14:16:26.904Z,11.02
2022-09-23T14:18:59.544Z,15.43
2022-09-23T14:21:29.222Z,7.72
2022-09-23T14:23:58.286Z,9.43
2022-09-23T14:26:26.125Z,9.25
2022-09-23T14:28:53.882Z,12.68
2022-09-23T14:31:20.649Z,10.15
2022-09-23T14:33:47.244Z,6.57
2022-09-23T14:36:37.838Z,7.45
2022-09-23T14:39:09.590Z,12.13
2022-09-23T14:41:43.477Z,14.15
2022-09-23T14:44:23.190Z,14.85
2022-09-23T14:46:57.954Z,7.80
2022-09-23T14:49:25.400Z,14.45
2022-09-23T14:51:58.589Z,13.30
2022-09-23T14:54:45.262Z,16.45
2022-09-23T14:57:28.737Z,13.93
2022-09-23T15:00:16.513Z,11.45
2022-09-23T15:02:45.510Z,9.32
2022-09-23T15:05:30.400Z,12.27
2022-09-23T15:08:00.555Z,10.65
2022-09-23T15:10:33.153Z,10.57
2022-09-23T15:13:23.916Z,13.60
2022-09-23T15:15:54.931Z,12.20
2022-09-23T15:18:27.847Z,13.55
2022-09-23T15:20:57.900Z,9.68
2022-09-23T15:23:43.199Z,14.25
2022-09-23T15:26:17.421Z,19.10
2022-09-23T15:28:45.919Z,11.02
2022-09-23T15:31:17.541Z,10.55
2022-09-23T15:33:49.979Z,11.27
2022-09-23T15:36:21.756Z,13.48
2022-09-23T15:38:48.716Z,10.15
2022-09-23T15:41:15.809Z,10.02
2022-09-23T15:43:45.193Z,13.27
2022-09-23T15:46:20.847Z,13.52
2022-09-23T15:49:05.690Z,15.30
2022-09-23T15:51:32.341Z,11.52
2022-09-23T15:54:01.321Z,13.38
2022-09-23T15:56:30.253Z,11.05
2022-09-23T15:58:56.774Z,15.27
2022-09-23T16:01:31.965Z,15.77
2022-09-23T16:04:01.253Z,14.88
2022-09-23T16:06:28.186Z,13.82
2022-09-23T16:08:57.417Z,12.98
2022-09-23T16:11:29.337Z,20.27
2022-09-23T16:14:00.479Z,23.20
2022-09-23T16:16:31.168Z,13.70
2022-09-23T16:18:57.814Z,13.82
2022-09-23T16:21:26.365Z,13.82
2022-09-23T16:23:57.413Z,12.48
2022-09-23T16:26:27.706Z,12.43
2022-09-23T16:28:56.516Z,9.90
2022-09-23T16:31:30.043Z,12.20
2022-09-23T16:33:57.809Z,16.67
2022-09-23T16:36:31.802Z,11.68
2022-09-23T16:39:02.731Z,11.77
2022-09-23T16:41:31.646Z,16.40
2022-09-23T16:44:00.567Z,11.68
2022-09-23T16:46:31.408Z,12.70
2022-09-23T16:48:58.946Z,15.10
2022-09-23T16:51:28.779Z,16.88
2022-09-23T16:53:59.663Z,11.95
2022-09-23T16:56:29.219Z,11.13
2022-09-23T16:58:56.719Z,9.35
2022-09-23T17:01:46.819Z,20.52
2022-09-23T17:04:14.643Z,10.95
2022-09-23T17:06:50.662Z,12.52
2022-09-23T17:09:32.127Z,15.27
2022-09-23T17:12:15.633Z,13.35
2022-09-23T17:14:44.659Z,15.35
2022-09-23T17:17:11.965Z,16.98
2022-09-23T17:19:41.681Z,15.10
2022-09-23T17:22:08.531Z,18.98
2022-09-23T17:24:35.122Z,12.10
2022-09-23T17:27:01.691Z,13.85
2022-09-23T17:29:29.097Z,14.50
2022-09-23T17:31:56.043Z,23.05
2022-09-23T17:34:24.048Z,16.38
2022-09-23T17:36:52.663Z,14.18
2022-09-23T17:39:22.491Z,21.52
2022-09-23T17:41:48.985Z,17.17
2022-09-23T17:44:17.630Z,18.27
2022-09-23T17:46:47.598Z,24.55
2022-09-23T17:49:19.134Z,21.83
2022-09-23T17:51:48.111Z,17.13
2022-09-23T17:54:15.056Z,17.30
2022-09-23T17:56:42.623Z,17.75
2022-09-23T17:59:12.593Z,25.00
2022-09-23T18:01:39.173Z,18.48
2022-09-23T18:04:05.832Z,21.88
2022-09-23T18:06:37.713Z,14.32
2022-09-23T18:09:07.666Z,19.42
2022-09-23T18:11:39.785Z,15.82
2022-09-23T18:14:18.577Z,16.92
2022-09-23T18:16:47.906Z,16.02
2022-09-23T18:19:17.759Z,21.60
2022-09-23T18:21:52.259Z,15.93
2022-09-23T18:24:31.827Z,21.23
2022-09-23T18:26:59.999Z,18.27
2022-09-23T18:29:27.270Z,17.58
2022-09-23T18:31:54.084Z,19.45
2022-09-23T18:34:23.692Z,20.10
2022-09-23T18:36:50.474Z,14.60
2022-09-23T18:39:17.418Z,17.23
2022-09-23T18:41:44.069Z,17.80
2022-09-23T18:44:11.007Z,21.55
2022-09-23T18:46:37.575Z,17.20
2022-09-23T18:49:22.916Z,17.75
2022-09-23T18:51:55.730Z,16.48
2022-09-23T18:54:27.793Z,17.40
2022-09-23T18:56:55.236Z,17.90
2022-09-23T18:59:25.268Z,12.90
2022-09-23T19:01:54.982Z,15.00
2022-09-23T19:04:23.699Z,14.98
2022-09-23T19:06:50.793Z,15.23
2022-09-23T19:09:18.298Z,16.05
2022-09-23T19:11:45.925Z,14.90
2022-09-23T19:14:13.102Z,15.77
2022-09-23T19:16:40.943Z,14.43
2022-09-23T19:19:10.308Z,12.55
2022-09-23T19:21:37.221Z,14.63
2022-09-23T19:24:08.734Z,14.80
2022-09-23T19:26:40.633Z,14.30
2022-09-23T19:29:14.871Z,11.65
2022-09-23T19:31:44.111Z,14.88
2022-09-23T19:34:24.799Z,14.20
2022-09-23T19:36:52.896Z,14.38
2022-09-23T19:39:22.340Z,14.80
2022-09-23T19:41:55.886Z,14.95
2022-09-23T19:44:24.295Z,13.55
2022-09-23T19:46:56.017Z,14.30
2022-09-23T19:49:26.099Z,14.05
2022-09-23T19:51:56.447Z,12.90
2022-09-23T19:54:23.495Z,11.23
2022-09-23T19:56:50.670Z,12.43
2022-09-23T19:59:19.142Z,14.05
2022-09-23T20:01:48.866Z,13.32
2022-09-23T20:04:16.609Z,12.70
2022-09-23T20:06:43.269Z,13.40
2022-09-23T20:09:10.187Z,13.52
2022-09-23T20:11:36.880Z,13.25
2022-09-23T20:14:04.894Z,12.23
2022-09-23T20:16:36.849Z,15.05
2022-09-23T20:19:05.725Z,15.88
2022-09-23T20:21:33.905Z,14.98
2022-09-23T20:24:01.955Z,16.30
2022-09-23T20:26:47.083Z,15.68
2022-09-23T20:29:14.456Z,15.60
2022-09-23T20:31:41.074Z,17.80
2022-09-23T20:34:10.248Z,19.08
2022-09-23T20:36:37.150Z,20.10
2022-09-23T20:39:09.772Z,18.85
2022-09-23T20:41:38.654Z,24.23
2022-09-23T20:44:14.128Z,19.65
2022-09-23T20:46:47.762Z,21.45
2022-09-23T20:49:16.066Z,21.00
2022-09-23T20:51:42.714Z,23.63
2022-09-23T20:54:09.457Z,19.88
2022-09-23T20:56:36.341Z,20.95
2022-09-23T20:59:07.210Z,24.85
2022-09-23T21:01:36.585Z,21.65
2022-09-23T21:04:05.715Z,21.85
2022-09-23T21:06:35.384Z,21.92
2022-09-23T21:09:04.650Z,23.05
2022-09-23T21:11:36.037Z,23.30
2022-09-23T21:14:03.029Z,19.85
2022-09-23T21:16:30.380Z,22.60
2022-09-23T21:18:57.757Z,20.10
2022-09-23T21:21:24.640Z,23.48
2022-09-23T21:23:51.177Z,20.58
2022-09-23T21:26:19.459Z,18.00
2022-09-23T21:28:54.676Z,21.92
2022-09-23T21:31:25.599Z,21.00
2022-09-23T21:34:07.972Z,22.67
2022-09-23T21:36:39.302Z,19.40
2022-09-23T21:39:07.018Z,20.92
2022-09-23T21:41:33.752Z,21.95
2022-09-23T21:44:04.437Z,19.00
2022-09-23T21:46:33.924Z,19.23
2022-09-23T21:49:03.458Z,17.42
2022-09-23T21:51:36.701Z,20.73
2022-09-23T21:54:05.684Z,19.45
2022-09-23T21:56:35.355Z,16.40
2022-09-23T21:59:05.767Z,16.65
2022-09-23T22:01:35.049Z,18.92
2022-09-23T22:04:13.501Z,18.30
2022-09-23T22:06:40.506Z,17.58
2022-09-23T22:09:11.351Z,21.02
2022-09-23T22:11:57.926Z,19.52
2022-09-23T22:14:26.282Z,20.50
2022-09-23T22:16:57.600Z,19.83
2022-09-23T22:19:26.639Z,21.25
2022-09-23T22:21:54.152Z,18.23
2022-09-23T22:24:22.996Z,18.40
2022-09-23T22:26:49.557Z,21.60
2022-09-23T22:29:34.975Z,20.02
2022-09-23T22:32:22.092Z,22.70
2022-09-23T22:34:51.087Z,18.38
2022-09-23T22:37:25.847Z,19.60
2022-09-23T22:39:53.430Z,19.92
2022-09-23T22:42:22.998Z,20.35
2022-09-23T22:44:50.588Z,21.23
2022-09-23T22:47:20.225Z,19.88
2022-09-23T22:49:49.372Z,23.42
2022-09-23T22:52:21.081Z,23.13
2022-09-23T22:54:47.791Z,23.85
2022-09-23T22:57:15.364Z,22.00
2022-09-23T22:59:47.948Z,22.30
2022-09-23T23:02:16.268Z,22.85
2022-09-23T23:04:49.048Z,19.25
2022-09-23T23:07:21.112Z,23.40
2022-09-23T23:09:54.334Z,24.40
2022-09-23T23:12:23.722Z,25.20
2022-09-23T23:14:50.246Z,25.05
2022-09-23T23:17:17.414Z,23.48
2022-09-23T23:19:47.677Z,26.48
2022-09-23T23:22:17.445Z,22.60
2022-09-23T23:24:44.005Z,24.50
2022-09-23T23:27:10.498Z,23.65
2022-09-23T23:29:39.327Z,23.27
2022-09-23T23:32:07.622Z,25.50
2022-09-23T23:34:34.168Z,26.40
2022-09-23T23:37:00.763Z,23.17
2022-09-23T23:39:27.478Z,25.60
2022-09-23T23:41:57.973Z,30.60
2022-09-23T23:44:27.964Z,24.50
2022-09-23T23:46:56.971Z,26.20
2022-09-23T23:49:23.474Z,28.67
2022-09-23T23:51:50.230Z,26.10
2022-09-23T23:54:16.921Z,30.48
2022-09-23T23:56:43.637Z,28.92
2022-09-23T23:59:12.743Z,27.88
